Historyczne dane pomiarowe

Dodano dane terminowe – wersja testowa.

Dane z okresu 1951-2018

Wersja bazy: 1.29 [2019-01-10, lista zmian], aktualizacja planowana na 2019-02-07

Dane meteo z obszaru Polski uzyskane na podstawie danych udostępnionych przez Instytut Meteorologii i Gospodarki Wodnej – Państwowy Instytut Badawczy.

 

Wybierz Datę:    

       

TemperaturaWilgotnośćWiatrCiśnienieOpadyŚniegCzas trwania zjawisk
 Stacja t tx tn tng RH VA  wxwx mslp ppp RRR   cm mm wxwxwxwxwxwxwx
1986-12-13 0.0 0.6 -1.0 -2.6 92.5- 8.0 2.0---- 0.6------------
1986-12-14 -2.1 -0.4 -2.8 -6.4 79.5- 5.7 2.3---- 1.5------------
1986-12-15 -0.5 1.1 -2.7 -4.2 96.0- 8.0 1.3---- 0.3-- 2---------
1986-12-16 -0.1 0.7 -1.5 -3.0 95.8- 8.0 4.7---- 4.4-- 1---------
1986-12-17 1.9 3.3 0.4 -1.2 89.3- 8.0 7.3---- 3.4-- 3---------
1986-12-18 1.1 2.5 0.3 -2.5 94.0- 8.0 2.3---- 3.0------------
1986-12-19 1.4 2.8 0.3 -1.5 96.0- 7.7 3.0---- 8.6------------
1986-12-20 -0.1 1.1 -1.4 -3.0 93.3- 8.0 6.0---- 0.8-- 3---------
1986-12-21 -2.5 -0.5 -6.0 -7.7 84.3- 7.3 5.7---- 2.1-- 4---------
1986-12-22 -4.3 -2.4 -6.5-11.4 88.3- 7.7 6.3---- 1.8-- 10---------
1986-12-23 -4.1 -3.0 -6.5 -7.9 89.8- 8.0 3.7---- 0.0-- 16---------
1986-12-24 -7.8 -6.1 -9.2 -9.9 89.8- 7.7 2.7---- 0.0-- 14---------
1986-12-25 -8.3 -6.6-10.5-13.6 93.0- 7.0 2.3---- 0.0-- 11---------
1986-12-26 -8.0 -6.3-10.2-11.8 86.0- 7.7 3.7---- 0.1-- 11---------
1986-12-27 -7.6 -2.6-10.6-11.8 85.3- 8.0 3.3---- 0.4-- 11---------
1986-12-28 -1.8 -0.7 -4.4 -6.5 91.8- 7.7 4.0---- 1.6-- 9---------
1986-12-29 -3.5 2.8-11.0-19.7 90.8- 7.7 6.0---- 5.3-- 14---------
1986-12-30 -0.7 2.8 -2.0 -3.9 87.0- 8.0 10.7---- 0.2-- 16---------
1986-12-31 -4.1 -0.8 -6.8-13.8 82.8- 7.7 3.7---- 1.6-- 16---------
1987-01-01 -5.8 -2.4-11.0 -6.9 92.8- 6.3 5.0---- 4.4-- 17---------
1987-01-02-21.8-10.5-23.7-32.7 81.0- 2.7 0.3---- 0.0-- 33---------
1987-01-03-11.9 -4.8-24.0-32.2 88.8- 5.0 5.0---- 3.3-- 24---------
1987-01-04-14.2 -8.1-17.4-28.2 86.3- 4.0 0.0---- 0.1-- 35---------
1987-01-05 -9.3 -7.3-13.3-15.8 90.3- 8.0 5.7---- 5.3-- 35---------
1987-01-06-12.1 -4.1-18.6-17.7 88.3- 7.3 5.3---- 0.2-- 43---------
1987-01-07-26.2-18.1-30.0-39.7 77.5- 0.0 1.3---- 0.0-- 43---------
1987-01-08-19.7-13.1-31.0-39.7 80.5- 3.0 3.0---- 0.4-- 42---------
1987-01-09-14.8-12.4-20.0-24.3 84.5- 4.0 3.7---- 0.0-- 34---------
1987-01-10-23.9-19.2-28.0-38.2 79.5- 2.3 2.0---- 0.6-- 35---------
1987-01-11-25.6-23.7-28.0-37.7 78.8- 3.0 4.7---- 0.2-- 36---------
449.7 ms

 

Źródłem pochodzenia danych jest Instytut Meteorologii i Gospodarki Wodnej – Państwowy Instytut Badawczy. Dane Instytutu Meteorologii i Gospodarki Wodnej – Państwowego Instytutu Badawczego zostały przetworzone.

Dane źródłowe można odnaleźć na stronie https://dane.imgw.pl